Licenciado y General Ignacio Lopez Rayon Airport
MMPN : now visible

Airfield :











YOU CAN JOIN US ON...

 
LOGIN :

Register | Disclaimer

   EN    FR    IT 

 









Legend :    VFR   Marginal VFR   IFR   Intensive IFR   Very Intensive IFR
Visi :
Ceiling :
>= 8 km
>= 3000ft
5 to 8 km
1000 to 3000 ft
1500m to 5 km
500 to 1000 ft
800 to 1500m
200 to 500 ft
< 800m
< 200 ft
Symbols :   Thunderstorms  Fog  Heavy snow  Heavy precipitations  Wind > 20 kt






- Airport Elevation : 5258 ft
- IATA code : UPN


MMPN - Licenciado y General Ignacio Lopez Rayon

CURRENT METAR :
  • 232145Z 30008KT 7SM FEW020CB BKN070 BKN260 19/15 A3006 RMK 8/968 HZY PCPN NW

EXPIRED METARs :
  • 232042Z 18008KT 6SM SCT015CB BKN070 BKN260 21/17 A3007 RMK 8/968 HZY VC TSRA 4 QUAD
  • 231942Z 16010KT 7SM SCT020CB BKN080 BKN260 21/18 A3008 RMK 8/963 HZY WR CLDS S

TAF TAF MMPN
Valid from the 23 at 18:00 until the 24 at 18:00 UTC


231642Z 2318/2418 19008KT P6SM SCT030 BKN070 BKN200
BECMG 2319/2320 P6SM -RA BKN020CB OVC070
TEMPO 2321/2401 4SM TSRA
FM240100 00000KT 4SM -RA BR BKN015 OVC070
FM241000 00000KT 3SM BR HZ BKN120
FM241500 00000KT 6SM HZ BKN120



MET'MAP, your aeronautical weather chart ! - Copyright ORBIFLY December 2007 - Disclaimer

ORBIFLY MET'MAP TEAM :

Programming & Development : Alexandra Zaïnal
Concept & Development : Baudouin d'Aumeries
Co-Development & Prog : Marc-Olivier Méhu
Technical & hardware support : Manuel Goepfert

Contact : metmap@orbifly.com




SOURCES & CREDITS :

   NOAA       Earth
Advisory